Linda Moran — WDE4187 — position and weather

sailwx.info

Track history (hours):
 
Tides and Currents Weather Stations Pressure Air Temp Water Temp Dewpoint Dewpoint Depression Visibility Wind Speed Wind Dir Waves Ship Positions

Linda Moran

Owner: MORAN TOWING CORP., NEW CANAAN, CT. More information available from US FCC via Universal Licensing System and Coast Guard Vessel Documentation Center.

Last reported at 2017-Aug-16 21:31 UTC. Time now 2017-Aug-16 21:50 UTC.
Position N 39°33' W 075°33'.

Length 156 m; draft 7.6 m.

Type: . MMSI: 367349860.

Date/timePositionNaut miles runAvg speedWind from/ knotsBaromVisibWave heightAir tempDewpointWater temp
2017-Aug-16 21:31N 39°33' W 075°33'0 0.0
2017-Aug-16 21:01N 39°33' W 075°33'0 0.0
2017-Aug-16 20:31N 39°33' W 075°33'0 0.0
2017-Aug-16 20:01N 39°33' W 075°33'0 0.0
2017-Aug-16 19:31N 39°33' W 075°33'0 0.1
2017-Aug-16 19:01N 39°33' W 075°33'0 0.3
2017-Aug-16 18:31N 39°33' W 075°33'0 0.1
2017-Aug-16 18:01N 39°33' W 075°33'0 0.0
2017-Aug-16 17:31N 39°33' W 075°33'0 0.0
2017-Aug-16 17:01N 39°33' W 075°33'0 0.6
2017-Aug-16 16:31N 39°33' W 075°32'4 7.7
2017-Aug-16 16:00N 39°33' W 075°37'4 8.7
2017-Aug-16 15:31N 39°33' W 075°43'4 8.5
2017-Aug-16 15:01N 39°32' W 075°48'4 7.6
2017-Aug-16 14:30N 39°31' W 075°53'4 8.2
2017-Aug-16 14:00N 39°29' W 075°57'4 8.7
2017-Aug-16 13:30N 39°25' W 076°01'4 8.3
2017-Aug-16 13:00N 39°23' W 076°06'4 8.3
2017-Aug-16 12:30N 39°21' W 076°10'4 7.8
2017-Aug-16 12:00N 39°18' W 076°13'4 8.2
2017-Aug-16 11:30N 39°14' W 076°15'4 8.6
2017-Aug-16 11:00N 39°10' W 076°18'4 7.6
2017-Aug-16 10:30N 39°10' W 076°23'5 9.7
2017-Aug-16 10:00N 39°11' W 076°28'4 8.4
2017-Aug-16 09:30N 39°13' W 076°33'1 1.4
2017-Aug-16 09:00N 39°14' W 076°34'0 0.0
2017-Aug-16 08:25N 39°14' W 076°34'0 0.0
2017-Aug-16 07:58N 39°14' W 076°34'0 0.0
2017-Aug-16 07:28N 39°14' W 076°34'0 0.0
2017-Aug-16 06:58N 39°14' W 076°34'0 0.0
2017-Aug-16 06:28N 39°14' W 076°34'0 0.0
2017-Aug-16 05:58N 39°14' W 076°34'0 0.0
2017-Aug-16 05:28N 39°14' W 076°34'0 0.0
2017-Aug-16 04:58N 39°14' W 076°34'0 0.0
2017-Aug-16 04:28N 39°14' W 076°34'0 0.0
2017-Aug-16 03:58N 39°14' W 076°34'0 0.0
2017-Aug-16 03:28N 39°13' W 076°34'0 0.0
2017-Aug-16 02:58N 39°13' W 076°34'0 0.0
2017-Aug-16 02:28N 39°14' W 076°34'0 0.0
2017-Aug-16 01:58N 39°13' W 076°34'0 0.0
2017-Aug-16 01:28N 39°13' W 076°34'0 0.0
2017-Aug-16 00:58N 39°13' W 076°34'0 0.0
2017-Aug-16 00:28N 39°13' W 076°34'0 0.0
2017-Aug-15 23:58N 39°13' W 076°34'0 0.0
2017-Aug-15 23:28N 39°13' W 076°34'0 0.0
2017-Aug-15 22:58N 39°13' W 076°34'0 0.0
2017-Aug-15 22:28N 39°14' W 076°34'0 0.0
2017-Aug-15 21:58N 39°13' W 076°34'0 0.0
2017-Aug-15 21:28N 39°13' W 076°34'0 0.0
2017-Aug-15 20:58N 39°13' W 076°34'0 0.0
2017-Aug-15 20:28N 39°13' W 076°34'0 0.0
2017-Aug-15 19:58N 39°14' W 076°34'0 0.0
2017-Aug-15 19:30N 39°13' W 076°34'0 0.3
2017-Aug-15 19:00N 39°13' W 076°34'0 0.4
2017-Aug-15 18:30N 39°13' W 076°34'1 1.0
2017-Aug-15 18:00N 39°13' W 076°35'0 0.3
2017-Aug-15 17:25N 39°13' W 076°35'0 0.0
2017-Aug-15 16:58N 39°13' W 076°35'0 0.0
2017-Aug-15 16:28N 39°13' W 076°35'0 0.0
2017-Aug-15 15:58N 39°13' W 076°35'0 0.0
2017-Aug-15 15:28N 39°13' W 076°35'0 0.0
2017-Aug-15 14:58N 39°13' W 076°35'0 0.0
2017-Aug-15 14:22N 39°13' W 076°35'0 0.0
2017-Aug-15 13:58N 39°13' W 076°35'0 0.0
2017-Aug-15 13:28N 39°13' W 076°35'0 0.0
2017-Aug-15 12:58N 39°13' W 076°35'0 0.0
2017-Aug-15 12:28N 39°13' W 076°35'0 0.0
2017-Aug-15 11:58N 39°13' W 076°35'0 0.0
2017-Aug-15 11:28N 39°13' W 076°35'0 0.0
2017-Aug-15 10:58N 39°13' W 076°35'0 0.0
2017-Aug-15 10:28N 39°13' W 076°35'0 0.0
2017-Aug-15 09:58N 39°13' W 076°35'0 0.0
2017-Aug-15 09:28N 39°13' W 076°35'0 0.0
2017-Aug-15 08:58N 39°13' W 076°35'0 0.0
2017-Aug-15 08:28N 39°13' W 076°35'0 0.0
2017-Aug-15 07:58N 39°13' W 076°35'0 0.0
2017-Aug-15 07:22N 39°13' W 076°35'0 0.0
2017-Aug-15 06:55N 39°13' W 076°35'0 0.0
2017-Aug-15 06:28N 39°13' W 076°35'0 0.0
2017-Aug-15 05:58N 39°13' W 076°35'1 1.1
2017-Aug-15 05:30N 39°13' W 076°34'3 5.6
2017-Aug-15 05:00N 39°12' W 076°31'5 9.5
2017-Aug-15 04:30N 39°11' W 076°25'5 9.5
2017-Aug-15 04:00N 39°09' W 076°20'4 8.4
2017-Aug-15 03:30N 39°12' W 076°16'4 8.6
2017-Aug-15 03:00N 39°16' W 076°14'6 8.8
2017-Aug-15 02:18N 39°21' W 076°10'3 9.5
2017-Aug-15 02:00N 39°23' W 076°07'5 9.6
2017-Aug-15 01:30N 39°25' W 076°01'510.2
2017-Aug-15 01:00N 39°29' W 075°57'5 9.9
2017-Aug-15 00:30N 39°32' W 075°52'5 9.1
2017-Aug-15 00:00N 39°32' W 075°46'5 9.9
2017-Aug-14 23:30N 39°33' W 075°39'5 9.6
2017-Aug-14 23:00N 39°34' W 075°33'2 4.5
2017-Aug-14 22:30N 39°35' W 075°36'0 0.0
2017-Aug-14 22:00N 39°35' W 075°36'0 0.0
2017-Aug-14 21:30N 39°35' W 075°36'0 0.0
2017-Aug-14 20:58N 39°35' W 075°36'0 0.0
2017-Aug-14 20:28N 39°35' W 075°36'0 0.0
2017-Aug-14 19:58N 39°35' W 075°36'0 0.0
2017-Aug-14 19:28N 39°35' W 075°36'0 0.0
2017-Aug-14 18:58N 39°35' W 075°36'0 0.0
2017-Aug-14 18:28N 39°35' W 075°36'0 0.0
2017-Aug-14 17:58N 39°35' W 075°36'0 0.0
2017-Aug-14 17:28N 39°35' W 075°36'0 0.0
2017-Aug-14 16:58N 39°35' W 075°36'0 0.0
2017-Aug-14 16:28N 39°35' W 075°36'0 0.0
2017-Aug-14 15:58N 39°35' W 075°36'0 0.0
2017-Aug-14 15:28N 39°35' W 075°36'0 0.0
2017-Aug-14 14:58N 39°35' W 075°36'0 0.0
2017-Aug-14 14:28N 39°35' W 075°36'0 0.0
2017-Aug-14 13:58N 39°35' W 075°36'0 0.0
2017-Aug-14 13:28N 39°35' W 075°36'0 0.0
2017-Aug-14 12:58N 39°35' W 075°36'0 0.0
2017-Aug-14 12:28N 39°35' W 075°36'0 0.0
2017-Aug-14 11:58N 39°35' W 075°36'0 0.0
2017-Aug-14 11:28N 39°35' W 075°36'0 0.0
2017-Aug-14 10:58N 39°35' W 075°36'0 0.0
2017-Aug-14 10:28N 39°35' W 075°36'0 0.0
2017-Aug-14 09:58N 39°35' W 075°36'0 0.0
2017-Aug-14 09:28N 39°35' W 075°36'0 0.0
2017-Aug-14 08:58N 39°35' W 075°36'0 0.0
2017-Aug-14 08:28N 39°35' W 075°36'0 0.0
2017-Aug-14 07:58N 39°35' W 075°36'0 0.0
2017-Aug-14 07:28N 39°35' W 075°36'0 0.0
2017-Aug-14 06:58N 39°35' W 075°36'0 0.0
2017-Aug-14 06:28N 39°35' W 075°36'0 0.0
2017-Aug-14 05:58N 39°35' W 075°36'0 0.0
2017-Aug-14 05:28N 39°35' W 075°36'0 0.0
2017-Aug-14 04:58N 39°35' W 075°36'0 0.0
2017-Aug-14 04:28N 39°35' W 075°36'0 0.0
2017-Aug-14 03:58N 39°35' W 075°36'0 0.0
2017-Aug-14 03:28N 39°35' W 075°36'0 0.0
2017-Aug-14 02:58N 39°35' W 075°36'0 0.0
2017-Aug-14 02:28N 39°35' W 075°36'0 0.0
2017-Aug-14 01:58N 39°35' W 075°36'0 0.0
2017-Aug-14 01:28N 39°35' W 075°36'0 0.0
2017-Aug-14 00:58N 39°35' W 075°36'0 0.0
2017-Aug-14 00:28N 39°35' W 075°36'0 0.0
2017-Aug-13 23:58N 39°35' W 075°36'0 0.0
2017-Aug-13 23:28N 39°35' W 075°36'0 0.0
2017-Aug-13 22:58N 39°35' W 075°36'0 0.0
2017-Aug-13 22:28N 39°35' W 075°36'0 0.0
2017-Aug-13 21:58N 39°35' W 075°36'0 0.0
2017-Aug-13 21:28N 39°35' W 075°36'0 0.0
2017-Aug-13 20:58N 39°35' W 075°36'0 0.0
2017-Aug-13 20:28N 39°35' W 075°36'0 0.0
2017-Aug-13 19:55N 39°35' W 075°36'0 0.0
2017-Aug-13 19:28N 39°35' W 075°36'0 0.0
2017-Aug-13 18:58N 39°35' W 075°36'0 0.0
2017-Aug-13 18:28N 39°35' W 075°36'0 0.0
2017-Aug-13 17:58N 39°35' W 075°36'0 0.0
2017-Aug-13 17:28N 39°35' W 075°36'0 0.0
2017-Aug-13 16:58N 39°35' W 075°36'0 0.2
2017-Aug-13 16:31N 39°35' W 075°35'1 2.8
2017-Aug-13 16:01N 39°34' W 075°34'2 3.9
2017-Aug-13 15:30N 39°33' W 075°33'0 0.0
2017-Aug-13 15:00N 39°33' W 075°33'0 0.0
2017-Aug-13 14:30N 39°33' W 075°33'0 0.0
2017-Aug-13 14:00N 39°33' W 075°33'0 0.0
2017-Aug-13 13:30N 39°33' W 075°33'0 0.0
2017-Aug-13 13:00N 39°33' W 075°33'0 0.0
2017-Aug-13 12:30N 39°33' W 075°33'0 0.0
2017-Aug-13 12:00N 39°33' W 075°33'0 0.0
2017-Aug-13 11:30N 39°33' W 075°33'0 0.0
2017-Aug-13 11:00N 39°33' W 075°33'0 0.0
2017-Aug-13 10:30N 39°33' W 075°33'0 0.0
2017-Aug-13 10:00N 39°33' W 075°33'0 0.0
2017-Aug-13 09:30N 39°33' W 075°33'0 0.1
2017-Aug-13 09:00N 39°33' W 075°33'0 0.2
2017-Aug-13 08:30N 39°33' W 075°33'0 0.1
2017-Aug-13 08:00N 39°33' W 075°33'0 0.0
2017-Aug-13 07:30N 39°33' W 075°33'0 0.0
2017-Aug-13 07:00N 39°33' W 075°33'0 0.0
2017-Aug-13 06:30N 39°33' W 075°33'0 0.0
2017-Aug-13 06:00N 39°33' W 075°33'0 0.0
2017-Aug-13 05:30N 39°33' W 075°33'0 0.0
2017-Aug-13 05:00N 39°33' W 075°33'0 0.0
2017-Aug-13 04:30N 39°33' W 075°33'0 0.0
2017-Aug-13 04:00N 39°33' W 075°33'0 0.2
2017-Aug-13 03:30N 39°33' W 075°33'0 0.2
2017-Aug-13 03:00N 39°33' W 075°33'0 0.1
2017-Aug-13 02:30N 39°33' W 075°33'0 0.0
2017-Aug-13 02:00N 39°33' W 075°33'0 0.0
2017-Aug-13 01:30N 39°33' W 075°33'0 0.0
2017-Aug-13 01:00N 39°33' W 075°33'0 0.0
2017-Aug-13 00:30N 39°33' W 075°33'0 0.0
2017-Aug-13 00:00N 39°33' W 075°33'0 0.0
2017-Aug-12 23:30N 39°33' W 075°33'0 0.0
2017-Aug-12 23:00N 39°33' W 075°33'0 0.1
2017-Aug-12 22:30N 39°33' W 075°33'0 0.1
2017-Aug-12 22:00N 39°33' W 075°33'0 0.1
2017-Aug-12 21:30N 39°33' W 075°33'0 0.2
2017-Aug-12 21:00N 39°33' W 075°33'0 0.0
2017-Aug-12 20:30N 39°33' W 075°33'0 0.1
2017-Aug-12 20:00N 39°33' W 075°33'0 0.0
2017-Aug-12 19:30N 39°33' W 075°33'0 0.0
2017-Aug-12 19:00N 39°33' W 075°33'0 0.0
2017-Aug-12 18:30N 39°33' W 075°33'0 0.0
2017-Aug-12 18:00N 39°33' W 075°33'2 3.3
2017-Aug-12 17:30N 39°34' W 075°34'2 3.6
2017-Aug-12 17:00N 39°35' W 075°36'0 0.0
2017-Aug-12 16:28N 39°35' W 075°36'0 0.0
2017-Aug-12 15:58N 39°35' W 075°36'0 0.0
2017-Aug-12 15:28N 39°35' W 075°36'0 0.0
2017-Aug-12 14:58N 39°35' W 075°36'0 0.0
2017-Aug-12 14:28N 39°35' W 075°36'0 0.0
2017-Aug-12 13:58N 39°35' W 075°36'0 0.0
2017-Aug-12 13:28N 39°35' W 075°36'0 0.0
2017-Aug-12 12:58N 39°35' W 075°36'0 0.0
2017-Aug-12 12:28N 39°35' W 075°36'0 0.0
2017-Aug-12 11:58N 39°35' W 075°36'0 0.0
2017-Aug-12 11:28N 39°35' W 075°36'0 0.0
2017-Aug-12 10:58N 39°35' W 075°36'0 0.0
2017-Aug-12 10:28N 39°35' W 075°36'0 0.0
2017-Aug-12 09:58N 39°35' W 075°36'0 0.0
2017-Aug-12 09:28N 39°35' W 075°36'0 0.0
2017-Aug-12 08:58N 39°35' W 075°36'0 0.0
2017-Aug-12 08:28N 39°35' W 075°36'0 0.0
2017-Aug-12 07:58N 39°35' W 075°36'0 0.0
2017-Aug-12 07:28N 39°35' W 075°36'0 0.0
2017-Aug-12 06:58N 39°35' W 075°36'0 0.0
2017-Aug-12 06:28N 39°35' W 075°36'0 0.0
2017-Aug-12 05:58N 39°35' W 075°36'0 0.0
2017-Aug-12 05:28N 39°35' W 075°36'0 0.0
2017-Aug-12 04:58N 39°35' W 075°36'0 0.0
2017-Aug-12 04:28N 39°35' W 075°36'0 0.0
2017-Aug-12 03:58N 39°35' W 075°36'0 0.0
2017-Aug-12 03:28N 39°35' W 075°36'0 0.0
2017-Aug-12 02:58N 39°35' W 075°36'0 0.0
2017-Aug-12 02:28N 39°35' W 075°36'0 0.0
2017-Aug-12 01:58N 39°35' W 075°36'0 0.0
2017-Aug-12 01:28N 39°35' W 075°36'0 0.0
2017-Aug-12 00:58N 39°35' W 075°36'0 0.0
2017-Aug-12 00:28N 39°35' W 075°36'0 0.0
2017-Aug-11 23:58N 39°35' W 075°36'0 0.0
2017-Aug-11 23:28N 39°35' W 075°36'0 0.0
2017-Aug-11 22:58N 39°35' W 075°36'0 0.0
2017-Aug-11 22:26N 39°35' W 075°36'0 0.0
2017-Aug-11 21:58N 39°35' W 075°36'0 0.0
2017-Aug-11 21:28N 39°35' W 075°36'0 0.0
2017-Aug-11 20:58N 39°35' W 075°36'0 0.0
2017-Aug-11 20:28N 39°35' W 075°36'0 0.0
2017-Aug-11 19:58N 39°35' W 075°36'0 0.0
2017-Aug-11 19:28N 39°35' W 075°36'0 0.0
2017-Aug-11 18:58N 39°35' W 075°36'0 0.0
2017-Aug-11 18:28N 39°35' W 075°36'0 0.0
2017-Aug-11 17:58N 39°35' W 075°36'0 0.0
2017-Aug-11 17:28N 39°35' W 075°36'0 0.0
2017-Aug-11 16:58N 39°35' W 075°36'0 0.0
2017-Aug-11 16:28N 39°35' W 075°36'0 0.5
2017-Aug-11 16:00N 39°35' W 075°35'3 5.4
2017-Aug-11 15:30N 39°34' W 075°33'2 4.4
2017-Aug-11 15:00N 39°36' W 075°34'3 5.6
2017-Aug-11 14:30N 39°38' W 075°34'5 4.7
2017-Aug-11 13:29N 39°42' W 075°30'0 0.0
2017-Aug-11 12:59N 39°42' W 075°30'0 0.0
2017-Aug-11 12:29N 39°42' W 075°30'0 0.0
2017-Aug-11 11:59N 39°42' W 075°30'0 0.0
2017-Aug-11 11:29N 39°42' W 075°30'0 0.0
2017-Aug-11 10:59N 39°42' W 075°30'0 0.0
2017-Aug-11 10:29N 39°42' W 075°30'0 0.0
2017-Aug-11 09:59N 39°42' W 075°30'0 0.0
2017-Aug-11 09:29N 39°42' W 075°30'0 0.1
2017-Aug-11 08:59N 39°43' W 075°30'0 0.2
2017-Aug-11 08:29N 39°43' W 075°30'0 0.1
2017-Aug-11 07:59N 39°43' W 075°30'0 0.0
2017-Aug-11 07:29N 39°43' W 075°30'0 0.0
2017-Aug-11 06:59N 39°43' W 075°30'0 0.0
2017-Aug-11 06:29N 39°43' W 075°30'0 0.0
2017-Aug-11 05:59N 39°43' W 075°30'0 0.0
2017-Aug-11 05:29N 39°43' W 075°30'0 0.0
2017-Aug-11 04:59N 39°43' W 075°30'0 0.0
2017-Aug-11 04:29N 39°43' W 075°30'0 0.0
2017-Aug-11 03:59N 39°43' W 075°30'0 0.0
2017-Aug-11 03:29N 39°43' W 075°30'0 0.0
2017-Aug-11 02:59N 39°43' W 075°30'0 0.2
2017-Aug-11 02:29N 39°43' W 075°30'0 0.3
2017-Aug-11 01:59N 39°42' W 075°30'0 0.0
2017-Aug-11 01:29N 39°42' W 075°30'0 0.0
2017-Aug-11 00:59N 39°42' W 075°30'0 0.0
2017-Aug-11 00:29N 39°42' W 075°30'0 0.0
2017-Aug-10 23:59N 39°42' W 075°30'0 0.0
2017-Aug-10 23:29N 39°42' W 075°30'0 0.0
2017-Aug-10 22:59N 39°42' W 075°30'0 0.0
2017-Aug-10 22:29N 39°42' W 075°30'0 0.0
2017-Aug-10 21:59N 39°42' W 075°30'0 0.0
2017-Aug-10 21:26N 39°42' W 075°30'0 0.2
2017-Aug-10 20:56N 39°43' W 075°30'0 0.2
2017-Aug-10 20:26N 39°43' W 075°30'0 0.0
2017-Aug-10 19:59N 39°43' W 075°30'0 0.0
2017-Aug-10 19:29N 39°43' W 075°30'0 0.0
2017-Aug-10 18:59N 39°43' W 075°30'0 0.0
2017-Aug-10 18:29N 39°43' W 075°30'0 0.0
2017-Aug-10 17:59N 39°43' W 075°30'0 0.0
2017-Aug-10 17:29N 39°43' W 075°30'0 0.0
2017-Aug-10 16:59N 39°43' W 075°30'0 0.0
2017-Aug-10 16:29N 39°43' W 075°30'0 0.0
2017-Aug-10 15:59N 39°43' W 075°30'0 0.1
2017-Aug-10 15:30N 39°43' W 075°30'3 7.0
2017-Aug-10 15:00N 39°46' W 075°29'4 7.9
2017-Aug-10 14:31N 39°48' W 075°25'0 0.1
2017-Aug-10 13:58N 39°48' W 075°25'0 0.0
2017-Aug-10 13:28N 39°48' W 075°25'0 0.0
2017-Aug-10 12:58N 39°48' W 075°25'0 0.0
2017-Aug-10 12:28N 39°48' W 075°25'0 0.0
2017-Aug-10 11:58N 39°48' W 075°25'0 0.0
2017-Aug-10 11:28N 39°48' W 075°25'0 0.0
2017-Aug-10 10:58N 39°48' W 075°25'0 0.0
2017-Aug-10 10:28N 39°48' W 075°25'0 0.0
2017-Aug-10 09:58N 39°48' W 075°25'0 0.0
2017-Aug-10 09:25N 39°48' W 075°25'0 0.1
2017-Aug-10 08:58N 39°48' W 075°25'0 0.3
2017-Aug-10 08:25N 39°48' W 075°24'0 0.1
2017-Aug-10 07:58N 39°48' W 075°24'0 0.0
2017-Aug-10 07:28N 39°48' W 075°24'0 0.0
2017-Aug-10 06:52N 39°48' W 075°24'0 0.0
2017-Aug-10 06:28N 39°48' W 075°24'0 0.0
2017-Aug-10 05:58N 39°48' W 075°24'0 0.0
2017-Aug-10 05:28N 39°48' W 075°24'0 0.0
2017-Aug-10 04:58N 39°48' W 075°24'0 0.0
2017-Aug-10 04:28N 39°48' W 075°24'0 0.0
2017-Aug-10 03:58N 39°48' W 075°24'0 0.0
2017-Aug-10 03:28N 39°48' W 075°24'0 0.0
2017-Aug-10 02:58N 39°48' W 075°24'0 0.3
2017-Aug-10 02:28N 39°48' W 075°25'0 0.2
2017-Aug-10 01:58N 39°48' W 075°25'0 0.0
2017-Aug-10 01:25N 39°48' W 075°25'0 0.0
2017-Aug-10 00:58N 39°48' W 075°25'0 0.1
2017-Aug-10 00:28N 39°48' W 075°25'0 0.0
2017-Aug-09 23:58N 39°48' W 075°25'0 0.0
2017-Aug-09 23:28N 39°48' W 075°25'0 0.0
2017-Aug-09 22:58N 39°48' W 075°25'0 0.0
2017-Aug-09 22:28N 39°48' W 075°25'0 0.0
2017-Aug-09 22:00N 39°48' W 075°25'0 0.5
2017-Aug-09 21:31N 39°48' W 075°25'4 8.6
2017-Aug-09 21:01N 39°51' W 075°20'5 9.8
2017-Aug-09 20:30N 39°52' W 075°14'2 5.0
2017-Aug-09 20:00N 39°54' W 075°12'1 1.9
2017-Aug-09 19:30N 39°55' W 075°13'0 0.0
2017-Aug-09 19:00N 39°55' W 075°13'0 0.0
2017-Aug-09 18:30N 39°55' W 075°13'0 0.0
2017-Aug-09 18:00N 39°55' W 075°13'0 0.0
2017-Aug-09 17:27N 39°55' W 075°13'0 0.0
2017-Aug-09 17:00N 39°55' W 075°13'0 0.0
2017-Aug-09 16:30N 39°55' W 075°13'0 0.0
2017-Aug-09 16:00N 39°55' W 075°13'0 0.0
2017-Aug-09 15:30N 39°55' W 075°13'0 0.0
2017-Aug-09 14:57N 39°55' W 075°13'0 0.0
2017-Aug-09 14:30N 39°55' W 075°13'0 0.0
2017-Aug-09 14:00N 39°55' W 075°13'0 0.0
2017-Aug-09 13:30N 39°55' W 075°13'0 0.0
2017-Aug-09 13:00N 39°55' W 075°13'0 0.0
2017-Aug-09 12:30N 39°55' W 075°13'0 0.0
2017-Aug-09 12:00N 39°55' W 075°13'0 0.0
2017-Aug-09 11:30N 39°55' W 075°13'0 0.0
2017-Aug-09 11:00N 39°55' W 075°13'0 0.0
2017-Aug-09 10:30N 39°55' W 075°13'0 0.0
2017-Aug-09 10:00N 39°55' W 075°13'0 0.0
2017-Aug-09 09:30N 39°55' W 075°13'0 0.0
2017-Aug-09 09:00N 39°55' W 075°13'0 0.0
2017-Aug-09 08:30N 39°55' W 075°13'0 0.0
2017-Aug-09 08:00N 39°55' W 075°13'0 0.0
2017-Aug-09 07:30N 39°55' W 075°13'0 0.0
2017-Aug-09 07:00N 39°55' W 075°13'0 0.0
2017-Aug-09 06:30N 39°55' W 075°13'0 0.0
2017-Aug-09 06:00N 39°55' W 075°13'0 0.0
2017-Aug-09 05:30N 39°55' W 075°13'0 0.0
2017-Aug-09 05:00N 39°55' W 075°13'0 0.0
2017-Aug-09 04:30N 39°55' W 075°13'0 0.0
2017-Aug-09 04:01N 39°55' W 075°13'0 0.0
2017-Aug-09 03:30N 39°55' W 075°13'1 1.8
2017-Aug-09 03:00N 39°54' W 075°13'2 3.1
2017-Aug-09 02:31N 39°52' W 075°12'0 0.1
2017-Aug-09 01:58N 39°52' W 075°12'0 0.1
2017-Aug-09 01:28N 39°52' W 075°13'0 0.1
2017-Aug-09 00:58N 39°52' W 075°13'0 0.1
2017-Aug-09 00:28N 39°52' W 075°13'0 0.0
2017-Aug-08 23:58N 39°52' W 075°13'0 0.0
2017-Aug-08 23:28N 39°52' W 075°13'0 0.0
2017-Aug-08 22:58N 39°52' W 075°13'0 0.0
2017-Aug-08 22:28N 39°52' W 075°13'0 0.0
2017-Aug-08 21:58N 39°52' W 075°13'0 0.0
2017-Aug-08 21:28N 39°52' W 075°13'0 0.1
2017-Aug-08 20:58N 39°52' W 075°12'0 0.0
2017-Aug-08 20:28N 39°52' W 075°12'0 0.1
2017-Aug-08 19:58N 39°52' W 075°12'0 0.3
2017-Aug-08 19:28N 39°52' W 075°12'0 0.1
2017-Aug-08 18:58N 39°52' W 075°12'0 0.0
2017-Aug-08 18:28N 39°52' W 075°12'0 0.0
2017-Aug-08 17:58N 39°52' W 075°12'0 0.0
2017-Aug-08 17:28N 39°52' W 075°12'1 3.0
2017-Aug-08 17:01N 39°52' W 075°14'510.3
2017-Aug-08 16:30N 39°51' W 075°20'510.9
2017-Aug-08 16:01N 39°48' W 075°26'510.2
2017-Aug-08 15:30N 39°44' W 075°30'510.8
2017-Aug-08 15:01N 39°39' W 075°33'5 9.6
2017-Aug-08 14:31N 39°34' W 075°33'3 5.1
2017-Aug-08 14:01N 39°35' W 075°36'0 0.0
2017-Aug-08 13:30N 39°35' W 075°36'0 0.0
2017-Aug-08 12:58N 39°35' W 075°36'0 0.0
2017-Aug-08 12:28N 39°35' W 075°36'0 0.0
2017-Aug-08 11:58N 39°35' W 075°36'0 0.0
2017-Aug-08 11:28N 39°35' W 075°36'0 0.0
2017-Aug-08 10:58N 39°35' W 075°36'0 0.0
2017-Aug-08 10:28N 39°35' W 075°36'0 0.0
2017-Aug-08 09:58N 39°35' W 075°36'0 0.0
2017-Aug-08 09:28N 39°35' W 075°36'0 0.0
2017-Aug-08 08:58N 39°35' W 075°36'0 0.0
2017-Aug-08 08:28N 39°35' W 075°36'0 0.0
2017-Aug-08 07:55N 39°35' W 075°36'0 0.0
2017-Aug-08 07:28N 39°35' W 075°36'0 0.0
2017-Aug-08 06:58N 39°35' W 075°36'0 0.0
2017-Aug-08 06:28N 39°35' W 075°36'0 0.0
2017-Aug-08 05:58N 39°35' W 075°36'0 0.0
2017-Aug-08 05:28N 39°35' W 075°36'0 0.0
2017-Aug-08 04:58N 39°35' W 075°36'0 0.0
2017-Aug-08 04:28N 39°35' W 075°36'0 0.0
2017-Aug-08 03:58N 39°35' W 075°36'0 0.0
2017-Aug-08 03:28N 39°35' W 075°36'0 0.0
2017-Aug-08 02:58N 39°35' W 075°36'0 0.0
2017-Aug-08 02:28N 39°35' W 075°36'0 0.0
2017-Aug-08 01:58N 39°35' W 075°36'0 0.0
2017-Aug-08 01:28N 39°35' W 075°36'0 0.0
2017-Aug-08 00:58N 39°35' W 075°36'0 0.0
2017-Aug-08 00:28N 39°35' W 075°36'0 0.0
2017-Aug-07 23:58N 39°35' W 075°36'0 0.0
2017-Aug-07 23:28N 39°35' W 075°36'0 0.0
2017-Aug-07 22:58N 39°35' W 075°36'0 0.0
2017-Aug-07 22:28N 39°35' W 075°36'0 0.0
2017-Aug-07 21:58N 39°35' W 075°36'0 0.0
2017-Aug-07 21:28N 39°35' W 075°36'0 0.0
2017-Aug-07 20:58N 39°35' W 075°36'0 0.0
2017-Aug-07 20:28N 39°35' W 075°36'0 0.0
2017-Aug-07 19:58N 39°35' W 075°36'0 0.0
2017-Aug-07 19:28N 39°35' W 075°36'0 0.0
2017-Aug-07 18:58N 39°35' W 075°36'0 0.0
2017-Aug-07 18:25N 39°35' W 075°36'0 0.0
2017-Aug-07 17:58N 39°35' W 075°36'0 0.0
2017-Aug-07 17:28N 39°35' W 075°36'0 0.0
2017-Aug-07 16:58N 39°35' W 075°36'0 0.0
2017-Aug-07 16:28N 39°35' W 075°36'0 0.0
2017-Aug-07 15:58N 39°35' W 075°36'0 0.0
2017-Aug-07 15:28N 39°35' W 075°36'0 0.0
2017-Aug-07 14:58N 39°35' W 075°36'0 0.0
2017-Aug-07 14:28N 39°35' W 075°36'0 0.0
2017-Aug-07 13:58N 39°35' W 075°36'0 0.0
2017-Aug-07 13:28N 39°35' W 075°36'0 0.0
2017-Aug-07 12:58N 39°35' W 075°36'0 0.0
2017-Aug-07 12:28N 39°35' W 075°36'0 0.0
2017-Aug-07 11:58N 39°35' W 075°36'0 0.0
2017-Aug-07 11:28N 39°35' W 075°36'0 0.0
2017-Aug-07 10:58N 39°35' W 075°36'0 0.0
2017-Aug-07 10:28N 39°35' W 075°36'0 0.0
2017-Aug-07 09:58N 39°35' W 075°36'0 0.0
2017-Aug-07 09:28N 39°35' W 075°36'0 0.0
2017-Aug-07 08:58N 39°35' W 075°36'0 0.0
2017-Aug-07 08:28N 39°35' W 075°36'0 0.0
2017-Aug-07 07:58N 39°35' W 075°36'0 0.0
2017-Aug-07 07:28N 39°35' W 075°36'0 0.0
2017-Aug-07 06:58N 39°35' W 075°36'0 0.0
2017-Aug-07 06:28N 39°35' W 075°36'0 0.0
2017-Aug-07 05:58N 39°35' W 075°36'0 0.0
2017-Aug-07 05:28N 39°35' W 075°36'0 0.0
2017-Aug-07 04:58N 39°35' W 075°36'0 0.0
2017-Aug-07 04:28N 39°35' W 075°36'0 0.0
2017-Aug-07 03:58N 39°35' W 075°36'0 0.0
2017-Aug-07 03:28N 39°35' W 075°36'0 0.0
2017-Aug-07 02:58N 39°35' W 075°36'0 0.0
2017-Aug-07 02:28N 39°35' W 075°36'0 0.0
2017-Aug-07 01:58N 39°35' W 075°36'0 0.0
2017-Aug-07 01:28N 39°35' W 075°36'0 0.0
2017-Aug-07 00:58N 39°35' W 075°36'0 0.0
2017-Aug-07 00:28N 39°35' W 075°36'0 0.0
2017-Aug-06 23:58N 39°35' W 075°36'0 0.0
2017-Aug-06 23:28N 39°35' W 075°36'0 0.0
2017-Aug-06 22:58N 39°35' W 075°36'0 0.0
2017-Aug-06 22:28N 39°35' W 075°36'0 0.0
2017-Aug-06 21:58N 39°35' W 075°36'  
Track history (hours):
 
Tides and Currents Weather Stations Pressure Air Temp Water Temp Dewpoint Dewpoint Depression Visibility Wind Speed Wind Dir Waves Ship Positions

Linda Moran

Owner: MORAN TOWING CORP., NEW CANAAN, CT. More information available from US FCC via Universal Licensing System and Coast Guard Vessel Documentation Center.

Last reported at 2017-Aug-16 21:31 UTC. Time now 2017-Aug-16 21:50 UTC.
Position N 39°33' W 075°33'.

Length 156 m; draft 7.6 m.

Type: . MMSI: 367349860.

Date/timePositionNaut miles runAvg speedWind from/ knotsBaromVisibWave heightAir tempDewpointWater temp
2017-Aug-16 21:31N 39°33' W 075°33'0 0.0
2017-Aug-16 21:01N 39°33' W 075°33'0 0.0
2017-Aug-16 20:31N 39°33' W 075°33'0 0.0
2017-Aug-16 20:01N 39°33' W 075°33'0 0.0
2017-Aug-16 19:31N 39°33' W 075°33'0 0.1
2017-Aug-16 19:01N 39°33' W 075°33'0 0.3
2017-Aug-16 18:31N 39°33' W 075°33'0 0.1
2017-Aug-16 18:01N 39°33' W 075°33'0 0.0
2017-Aug-16 17:31N 39°33' W 075°33'0 0.0
2017-Aug-16 17:01N 39°33' W 075°33'0 0.6
2017-Aug-16 16:31N 39°33' W 075°32'4 7.7
2017-Aug-16 16:00N 39°33' W 075°37'4 8.7
2017-Aug-16 15:31N 39°33' W 075°43'4 8.5
2017-Aug-16 15:01N 39°32' W 075°48'4 7.6
2017-Aug-16 14:30N 39°31' W 075°53'4 8.2
2017-Aug-16 14:00N 39°29' W 075°57'4 8.7
2017-Aug-16 13:30N 39°25' W 076°01'4 8.3
2017-Aug-16 13:00N 39°23' W 076°06'4 8.3
2017-Aug-16 12:30N 39°21' W 076°10'4 7.8
2017-Aug-16 12:00N 39°18' W 076°13'4 8.2
2017-Aug-16 11:30N 39°14' W 076°15'4 8.6
2017-Aug-16 11:00N 39°10' W 076°18'4 7.6
2017-Aug-16 10:30N 39°10' W 076°23'5 9.7
2017-Aug-16 10:00N 39°11' W 076°28'4 8.4
2017-Aug-16 09:30N 39°13' W 076°33'1 1.4
2017-Aug-16 09:00N 39°14' W 076°34'0 0.0
2017-Aug-16 08:25N 39°14' W 076°34'0 0.0
2017-Aug-16 07:58N 39°14' W 076°34'0 0.0
2017-Aug-16 07:28N 39°14' W 076°34'0 0.0
2017-Aug-16 06:58N 39°14' W 076°34'0 0.0
2017-Aug-16 06:28N 39°14' W 076°34'0 0.0
2017-Aug-16 05:58N 39°14' W 076°34'0 0.0
2017-Aug-16 05:28N 39°14' W 076°34'0 0.0
2017-Aug-16 04:58N 39°14' W 076°34'0 0.0
2017-Aug-16 04:28N 39°14' W 076°34'0 0.0
2017-Aug-16 03:58N 39°14' W 076°34'0 0.0
2017-Aug-16 03:28N 39°13' W 076°34'0 0.0
2017-Aug-16 02:58N 39°13' W 076°34'0 0.0
2017-Aug-16 02:28N 39°14' W 076°34'0 0.0
2017-Aug-16 01:58N 39°13' W 076°34'0 0.0
2017-Aug-16 01:28N 39°13' W 076°34'0 0.0
2017-Aug-16 00:58N 39°13' W 076°34'0 0.0
2017-Aug-16 00:28N 39°13' W 076°34'0 0.0
2017-Aug-15 23:58N 39°13' W 076°34'0 0.0
2017-Aug-15 23:28N 39°13' W 076°34'0 0.0
2017-Aug-15 22:58N 39°13' W 076°34'0 0.0
2017-Aug-15 22:28N 39°14' W 076°34'0 0.0
2017-Aug-15 21:58N 39°13' W 076°34'0 0.0
2017-Aug-15 21:28N 39°13' W 076°34'0 0.0
2017-Aug-15 20:58N 39°13' W 076°34'0 0.0
2017-Aug-15 20:28N 39°13' W 076°34'0 0.0
2017-Aug-15 19:58N 39°14' W 076°34'0 0.0
2017-Aug-15 19:30N 39°13' W 076°34'0 0.3
2017-Aug-15 19:00N 39°13' W 076°34'0 0.4
2017-Aug-15 18:30N 39°13' W 076°34'1 1.0
2017-Aug-15 18:00N 39°13' W 076°35'0 0.3
2017-Aug-15 17:25N 39°13' W 076°35'0 0.0
2017-Aug-15 16:58N 39°13' W 076°35'0 0.0
2017-Aug-15 16:28N 39°13' W 076°35'0 0.0
2017-Aug-15 15:58N 39°13' W 076°35'0 0.0
2017-Aug-15 15:28N 39°13' W 076°35'0 0.0
2017-Aug-15 14:58N 39°13' W 076°35'0 0.0
2017-Aug-15 14:22N 39°13' W 076°35'0 0.0
2017-Aug-15 13:58N 39°13' W 076°35'0 0.0
2017-Aug-15 13:28N 39°13' W 076°35'0 0.0
2017-Aug-15 12:58N 39°13' W 076°35'0 0.0
2017-Aug-15 12:28N 39°13' W 076°35'0 0.0
2017-Aug-15 11:58N 39°13' W 076°35'0 0.0
2017-Aug-15 11:28N 39°13' W 076°35'0 0.0
2017-Aug-15 10:58N 39°13' W 076°35'0 0.0
2017-Aug-15 10:28N 39°13' W 076°35'0 0.0
2017-Aug-15 09:58N 39°13' W 076°35'0 0.0
2017-Aug-15 09:28N 39°13' W 076°35'0 0.0
2017-Aug-15 08:58N 39°13' W 076°35'0 0.0
2017-Aug-15 08:28N 39°13' W 076°35'0 0.0
2017-Aug-15 07:58N 39°13' W 076°35'0 0.0
2017-Aug-15 07:22N 39°13' W 076°35'0 0.0
2017-Aug-15 06:55N 39°13' W 076°35'0 0.0
2017-Aug-15 06:28N 39°13' W 076°35'0 0.0
2017-Aug-15 05:58N 39°13' W 076°35'1 1.1
2017-Aug-15 05:30N 39°13' W 076°34'3 5.6
2017-Aug-15 05:00N 39°12' W 076°31'5 9.5
2017-Aug-15 04:30N 39°11' W 076°25'5 9.5
2017-Aug-15 04:00N 39°09' W 076°20'4 8.4
2017-Aug-15 03:30N 39°12' W 076°16'4 8.6
2017-Aug-15 03:00N 39°16' W 076°14'6 8.8
2017-Aug-15 02:18N 39°21' W 076°10'3 9.5
2017-Aug-15 02:00N 39°23' W 076°07'5 9.6
2017-Aug-15 01:30N 39°25' W 076°01'510.2
2017-Aug-15 01:00N 39°29' W 075°57'5 9.9
2017-Aug-15 00:30N 39°32' W 075°52'5 9.1
2017-Aug-15 00:00N 39°32' W 075°46'5 9.9
2017-Aug-14 23:30N 39°33' W 075°39'5 9.6
2017-Aug-14 23:00N 39°34' W 075°33'2 4.5
2017-Aug-14 22:30N 39°35' W 075°36'0 0.0
2017-Aug-14 22:00N 39°35' W 075°36'0 0.0
2017-Aug-14 21:30N 39°35' W 075°36'0 0.0
2017-Aug-14 20:58N 39°35' W 075°36'0 0.0
2017-Aug-14 20:28N 39°35' W 075°36'0 0.0
2017-Aug-14 19:58N 39°35' W 075°36'0 0.0
2017-Aug-14 19:28N 39°35' W 075°36'0 0.0
2017-Aug-14 18:58N 39°35' W 075°36'0 0.0
2017-Aug-14 18:28N 39°35' W 075°36'0 0.0
2017-Aug-14 17:58N 39°35' W 075°36'0 0.0
2017-Aug-14 17:28N 39°35' W 075°36'0 0.0
2017-Aug-14 16:58N 39°35' W 075°36'0 0.0
2017-Aug-14 16:28N 39°35' W 075°36'0 0.0
2017-Aug-14 15:58N 39°35' W 075°36'0 0.0
2017-Aug-14 15:28N 39°35' W 075°36'0 0.0
2017-Aug-14 14:58N 39°35' W 075°36'0 0.0
2017-Aug-14 14:28N 39°35' W 075°36'0 0.0
2017-Aug-14 13:58N 39°35' W 075°36'0 0.0
2017-Aug-14 13:28N 39°35' W 075°36'0 0.0
2017-Aug-14 12:58N 39°35' W 075°36'0 0.0
2017-Aug-14 12:28N 39°35' W 075°36'0 0.0
2017-Aug-14 11:58N 39°35' W 075°36'0 0.0
2017-Aug-14 11:28N 39°35' W 075°36'0 0.0
2017-Aug-14 10:58N 39°35' W 075°36'0 0.0
2017-Aug-14 10:28N 39°35' W 075°36'0 0.0
2017-Aug-14 09:58N 39°35' W 075°36'0 0.0
2017-Aug-14 09:28N 39°35' W 075°36'0 0.0
2017-Aug-14 08:58N 39°35' W 075°36'0 0.0
2017-Aug-14 08:28N 39°35' W 075°36'0 0.0
2017-Aug-14 07:58N 39°35' W 075°36'0 0.0
2017-Aug-14 07:28N 39°35' W 075°36'0 0.0
2017-Aug-14 06:58N 39°35' W 075°36'0 0.0
2017-Aug-14 06:28N 39°35' W 075°36'0 0.0
2017-Aug-14 05:58N 39°35' W 075°36'0 0.0
2017-Aug-14 05:28N 39°35' W 075°36'0 0.0
2017-Aug-14 04:58N 39°35' W 075°36'0 0.0
2017-Aug-14 04:28N 39°35' W 075°36'0 0.0
2017-Aug-14 03:58N 39°35' W 075°36'0 0.0
2017-Aug-14 03:28N 39°35' W 075°36'0 0.0
2017-Aug-14 02:58N 39°35' W 075°36'0 0.0
2017-Aug-14 02:28N 39°35' W 075°36'0 0.0
2017-Aug-14 01:58N 39°35' W 075°36'0 0.0
2017-Aug-14 01:28N 39°35' W 075°36'0 0.0
2017-Aug-14 00:58N 39°35' W 075°36'0 0.0
2017-Aug-14 00:28N 39°35' W 075°36'0 0.0
2017-Aug-13 23:58N 39°35' W 075°36'0 0.0
2017-Aug-13 23:28N 39°35' W 075°36'0 0.0
2017-Aug-13 22:58N 39°35' W 075°36'0 0.0
2017-Aug-13 22:28N 39°35' W 075°36'0 0.0
2017-Aug-13 21:58N 39°35' W 075°36'0 0.0
2017-Aug-13 21:28N 39°35' W 075°36'0 0.0
2017-Aug-13 20:58N 39°35' W 075°36'0 0.0
2017-Aug-13 20:28N 39°35' W 075°36'0 0.0
2017-Aug-13 19:55N 39°35' W 075°36'0 0.0
2017-Aug-13 19:28N 39°35' W 075°36'0 0.0
2017-Aug-13 18:58N 39°35' W 075°36'0 0.0
2017-Aug-13 18:28N 39°35' W 075°36'0 0.0
2017-Aug-13 17:58N 39°35' W 075°36'0 0.0
2017-Aug-13 17:28N 39°35' W 075°36'0 0.0
2017-Aug-13 16:58N 39°35' W 075°36'0 0.2
2017-Aug-13 16:31N 39°35' W 075°35'1 2.8
2017-Aug-13 16:01N 39°34' W 075°34'2 3.9
2017-Aug-13 15:30N 39°33' W 075°33'0 0.0
2017-Aug-13 15:00N 39°33' W 075°33'0 0.0
2017-Aug-13 14:30N 39°33' W 075°33'0 0.0
2017-Aug-13 14:00N 39°33' W 075°33'0 0.0
2017-Aug-13 13:30N 39°33' W 075°33'0 0.0
2017-Aug-13 13:00N 39°33' W 075°33'0 0.0
2017-Aug-13 12:30N 39°33' W 075°33'0 0.0
2017-Aug-13 12:00N 39°33' W 075°33'0 0.0
2017-Aug-13 11:30N 39°33' W 075°33'0 0.0
2017-Aug-13 11:00N 39°33' W 075°33'0 0.0
2017-Aug-13 10:30N 39°33' W 075°33'0 0.0
2017-Aug-13 10:00N 39°33' W 075°33'0 0.0
2017-Aug-13 09:30N 39°33' W 075°33'0 0.1
2017-Aug-13 09:00N 39°33' W 075°33'0 0.2
2017-Aug-13 08:30N 39°33' W 075°33'0 0.1
2017-Aug-13 08:00N 39°33' W 075°33'0 0.0
2017-Aug-13 07:30N 39°33' W 075°33'0 0.0
2017-Aug-13 07:00N 39°33' W 075°33'0 0.0
2017-Aug-13 06:30N 39°33' W 075°33'0 0.0
2017-Aug-13 06:00N 39°33' W 075°33'0 0.0
2017-Aug-13 05:30N 39°33' W 075°33'0 0.0
2017-Aug-13 05:00N 39°33' W 075°33'0 0.0
2017-Aug-13 04:30N 39°33' W 075°33'0 0.0
2017-Aug-13 04:00N 39°33' W 075°33'0 0.2
2017-Aug-13 03:30N 39°33' W 075°33'0 0.2
2017-Aug-13 03:00N 39°33' W 075°33'0 0.1
2017-Aug-13 02:30N 39°33' W 075°33'0 0.0
2017-Aug-13 02:00N 39°33' W 075°33'0 0.0
2017-Aug-13 01:30N 39°33' W 075°33'0 0.0
2017-Aug-13 01:00N 39°33' W 075°33'0 0.0
2017-Aug-13 00:30N 39°33' W 075°33'0 0.0
2017-Aug-13 00:00N 39°33' W 075°33'0 0.0
2017-Aug-12 23:30N 39°33' W 075°33'0 0.0
2017-Aug-12 23:00N 39°33' W 075°33'0 0.1
2017-Aug-12 22:30N 39°33' W 075°33'0 0.1
2017-Aug-12 22:00N 39°33' W 075°33'0 0.1
2017-Aug-12 21:30N 39°33' W 075°33'0 0.2
2017-Aug-12 21:00N 39°33' W 075°33'0 0.0
2017-Aug-12 20:30N 39°33' W 075°33'0 0.1
2017-Aug-12 20:00N 39°33' W 075°33'0 0.0
2017-Aug-12 19:30N 39°33' W 075°33'0 0.0
2017-Aug-12 19:00N 39°33' W 075°33'0 0.0
2017-Aug-12 18:30N 39°33' W 075°33'0 0.0
2017-Aug-12 18:00N 39°33' W 075°33'2 3.3
2017-Aug-12 17:30N 39°34' W 075°34'2 3.6
2017-Aug-12 17:00N 39°35' W 075°36'0 0.0
2017-Aug-12 16:28N 39°35' W 075°36'0 0.0
2017-Aug-12 15:58N 39°35' W 075°36'0 0.0
2017-Aug-12 15:28N 39°35' W 075°36'0 0.0
2017-Aug-12 14:58N 39°35' W 075°36'0 0.0
2017-Aug-12 14:28N 39°35' W 075°36'0 0.0
2017-Aug-12 13:58N 39°35' W 075°36'0 0.0
2017-Aug-12 13:28N 39°35' W 075°36'0 0.0
2017-Aug-12 12:58N 39°35' W 075°36'0 0.0
2017-Aug-12 12:28N 39°35' W 075°36'0 0.0
2017-Aug-12 11:58N 39°35' W 075°36'0 0.0
2017-Aug-12 11:28N 39°35' W 075°36'0 0.0
2017-Aug-12 10:58N 39°35' W 075°36'0 0.0
2017-Aug-12 10:28N 39°35' W 075°36'0 0.0
2017-Aug-12 09:58N 39°35' W 075°36'0 0.0
2017-Aug-12 09:28N 39°35' W 075°36'0 0.0
2017-Aug-12 08:58N 39°35' W 075°36'0 0.0
2017-Aug-12 08:28N 39°35' W 075°36'0 0.0
2017-Aug-12 07:58N 39°35' W 075°36'0 0.0
2017-Aug-12 07:28N 39°35' W 075°36'0 0.0
2017-Aug-12 06:58N 39°35' W 075°36'0 0.0
2017-Aug-12 06:28N 39°35' W 075°36'0 0.0
2017-Aug-12 05:58N 39°35' W 075°36'0 0.0
2017-Aug-12 05:28N 39°35' W 075°36'0 0.0
2017-Aug-12 04:58N 39°35' W 075°36'0 0.0
2017-Aug-12 04:28N 39°35' W 075°36'0 0.0
2017-Aug-12 03:58N 39°35' W 075°36'0 0.0
2017-Aug-12 03:28N 39°35' W 075°36'0 0.0
2017-Aug-12 02:58N 39°35' W 075°36'0 0.0
2017-Aug-12 02:28N 39°35' W 075°36'0 0.0
2017-Aug-12 01:58N 39°35' W 075°36'0 0.0
2017-Aug-12 01:28N 39°35' W 075°36'0 0.0
2017-Aug-12 00:58N 39°35' W 075°36'0 0.0
2017-Aug-12 00:28N 39°35' W 075°36'0 0.0
2017-Aug-11 23:58N 39°35' W 075°36'0 0.0
2017-Aug-11 23:28N 39°35' W 075°36'0 0.0
2017-Aug-11 22:58N 39°35' W 075°36'0 0.0
2017-Aug-11 22:26N 39°35' W 075°36'0 0.0
2017-Aug-11 21:58N 39°35' W 075°36'0 0.0
2017-Aug-11 21:28N 39°35' W 075°36'0 0.0
2017-Aug-11 20:58N 39°35' W 075°36'0 0.0
2017-Aug-11 20:28N 39°35' W 075°36'0 0.0
2017-Aug-11 19:58N 39°35' W 075°36'0 0.0
2017-Aug-11 19:28N 39°35' W 075°36'0 0.0
2017-Aug-11 18:58N 39°35' W 075°36'0 0.0
2017-Aug-11 18:28N 39°35' W 075°36'0 0.0
2017-Aug-11 17:58N 39°35' W 075°36'0 0.0
2017-Aug-11 17:28N 39°35' W 075°36'0 0.0
2017-Aug-11 16:58N 39°35' W 075°36'0 0.0
2017-Aug-11 16:28N 39°35' W 075°36'0 0.5
2017-Aug-11 16:00N 39°35' W 075°35'3 5.4
2017-Aug-11 15:30N 39°34' W 075°33'2 4.4
2017-Aug-11 15:00N 39°36' W 075°34'3 5.6
2017-Aug-11 14:30N 39°38' W 075°34'5 4.7
2017-Aug-11 13:29N 39°42' W 075°30'0 0.0
2017-Aug-11 12:59N 39°42' W 075°30'0 0.0
2017-Aug-11 12:29N 39°42' W 075°30'0 0.0
2017-Aug-11 11:59N 39°42' W 075°30'0 0.0
2017-Aug-11 11:29N 39°42' W 075°30'0 0.0
2017-Aug-11 10:59N 39°42' W 075°30'0 0.0
2017-Aug-11 10:29N 39°42' W 075°30'0 0.0
2017-Aug-11 09:59N 39°42' W 075°30'0 0.0
2017-Aug-11 09:29N 39°42' W 075°30'0 0.1
2017-Aug-11 08:59N 39°43' W 075°30'0 0.2
2017-Aug-11 08:29N 39°43' W 075°30'0 0.1
2017-Aug-11 07:59N 39°43' W 075°30'0 0.0
2017-Aug-11 07:29N 39°43' W 075°30'0 0.0
2017-Aug-11 06:59N 39°43' W 075°30'0 0.0
2017-Aug-11 06:29N 39°43' W 075°30'0 0.0
2017-Aug-11 05:59N 39°43' W 075°30'0 0.0
2017-Aug-11 05:29N 39°43' W 075°30'0 0.0
2017-Aug-11 04:59N 39°43' W 075°30'0 0.0
2017-Aug-11 04:29N 39°43' W 075°30'0 0.0
2017-Aug-11 03:59N 39°43' W 075°30'0 0.0
2017-Aug-11 03:29N 39°43' W 075°30'0 0.0
2017-Aug-11 02:59N 39°43' W 075°30'0 0.2
2017-Aug-11 02:29N 39°43' W 075°30'0 0.3
2017-Aug-11 01:59N 39°42' W 075°30'0 0.0
2017-Aug-11 01:29N 39°42' W 075°30'0 0.0
2017-Aug-11 00:59N 39°42' W 075°30'0 0.0
2017-Aug-11 00:29N 39°42' W 075°30'0 0.0
2017-Aug-10 23:59N 39°42' W 075°30'0 0.0
2017-Aug-10 23:29N 39°42' W 075°30'0 0.0
2017-Aug-10 22:59N 39°42' W 075°30'0 0.0
2017-Aug-10 22:29N 39°42' W 075°30'0 0.0
2017-Aug-10 21:59N 39°42' W 075°30'0 0.0
2017-Aug-10 21:26N 39°42' W 075°30'0 0.2
2017-Aug-10 20:56N 39°43' W 075°30'0 0.2
2017-Aug-10 20:26N 39°43' W 075°30'0 0.0
2017-Aug-10 19:59N 39°43' W 075°30'0 0.0
2017-Aug-10 19:29N 39°43' W 075°30'0 0.0
2017-Aug-10 18:59N 39°43' W 075°30'0 0.0
2017-Aug-10 18:29N 39°43' W 075°30'0 0.0
2017-Aug-10 17:59N 39°43' W 075°30'0 0.0
2017-Aug-10 17:29N 39°43' W 075°30'0 0.0
2017-Aug-10 16:59N 39°43' W 075°30'0 0.0
2017-Aug-10 16:29N 39°43' W 075°30'0 0.0
2017-Aug-10 15:59N 39°43' W 075°30'0 0.1
2017-Aug-10 15:30N 39°43' W 075°30'3 7.0
2017-Aug-10 15:00N 39°46' W 075°29'4 7.9
2017-Aug-10 14:31N 39°48' W 075°25'0 0.1
2017-Aug-10 13:58N 39°48' W 075°25'0 0.0
2017-Aug-10 13:28N 39°48' W 075°25'0 0.0
2017-Aug-10 12:58N 39°48' W 075°25'0 0.0
2017-Aug-10 12:28N 39°48' W 075°25'0 0.0
2017-Aug-10 11:58N 39°48' W 075°25'0 0.0
2017-Aug-10 11:28N 39°48' W 075°25'0 0.0
2017-Aug-10 10:58N 39°48' W 075°25'0 0.0
2017-Aug-10 10:28N 39°48' W 075°25'0 0.0
2017-Aug-10 09:58N 39°48' W 075°25'0 0.0
2017-Aug-10 09:25N 39°48' W 075°25'0 0.1
2017-Aug-10 08:58N 39°48' W 075°25'0 0.3
2017-Aug-10 08:25N 39°48' W 075°24'0 0.1
2017-Aug-10 07:58N 39°48' W 075°24'0 0.0
2017-Aug-10 07:28N 39°48' W 075°24'0 0.0
2017-Aug-10 06:52N 39°48' W 075°24'0 0.0
2017-Aug-10 06:28N 39°48' W 075°24'0 0.0
2017-Aug-10 05:58N 39°48' W 075°24'0 0.0
2017-Aug-10 05:28N 39°48' W 075°24'0 0.0
2017-Aug-10 04:58N 39°48' W 075°24'0 0.0
2017-Aug-10 04:28N 39°48' W 075°24'0 0.0
2017-Aug-10 03:58N 39°48' W 075°24'0 0.0
2017-Aug-10 03:28N 39°48' W 075°24'0 0.0
2017-Aug-10 02:58N 39°48' W 075°24'0 0.3
2017-Aug-10 02:28N 39°48' W 075°25'0 0.2
2017-Aug-10 01:58N 39°48' W 075°25'0 0.0
2017-Aug-10 01:25N 39°48' W 075°25'0 0.0
2017-Aug-10 00:58N 39°48' W 075°25'0 0.1
2017-Aug-10 00:28N 39°48' W 075°25'0 0.0
2017-Aug-09 23:58N 39°48' W 075°25'0 0.0
2017-Aug-09 23:28N 39°48' W 075°25'0 0.0
2017-Aug-09 22:58N 39°48' W 075°25'0 0.0
2017-Aug-09 22:28N 39°48' W 075°25'0 0.0
2017-Aug-09 22:00N 39°48' W 075°25'0 0.5
2017-Aug-09 21:31N 39°48' W 075°25'4 8.6
2017-Aug-09 21:01N 39°51' W 075°20'5 9.8
2017-Aug-09 20:30N 39°52' W 075°14'2 5.0
2017-Aug-09 20:00N 39°54' W 075°12'1 1.9
2017-Aug-09 19:30N 39°55' W 075°13'0 0.0
2017-Aug-09 19:00N 39°55' W 075°13'0 0.0
2017-Aug-09 18:30N 39°55' W 075°13'0 0.0
2017-Aug-09 18:00N 39°55' W 075°13'0 0.0
2017-Aug-09 17:27N 39°55' W 075°13'0 0.0
2017-Aug-09 17:00N 39°55' W 075°13'0 0.0
2017-Aug-09 16:30N 39°55' W 075°13'0 0.0
2017-Aug-09 16:00N 39°55' W 075°13'0 0.0
2017-Aug-09 15:30N 39°55' W 075°13'0 0.0
2017-Aug-09 14:57N 39°55' W 075°13'0 0.0
2017-Aug-09 14:30N 39°55' W 075°13'0 0.0
2017-Aug-09 14:00N 39°55' W 075°13'0 0.0
2017-Aug-09 13:30N 39°55' W 075°13'0 0.0
2017-Aug-09 13:00N 39°55' W 075°13'0 0.0
2017-Aug-09 12:30N 39°55' W 075°13'0 0.0
2017-Aug-09 12:00N 39°55' W 075°13'0 0.0
2017-Aug-09 11:30N 39°55' W 075°13'0 0.0
2017-Aug-09 11:00N 39°55' W 075°13'0 0.0
2017-Aug-09 10:30N 39°55' W 075°13'0 0.0
2017-Aug-09 10:00N 39°55' W 075°13'0 0.0
2017-Aug-09 09:30N 39°55' W 075°13'0 0.0
2017-Aug-09 09:00N 39°55' W 075°13'0 0.0
2017-Aug-09 08:30N 39°55' W 075°13'0 0.0
2017-Aug-09 08:00N 39°55' W 075°13'0 0.0
2017-Aug-09 07:30N 39°55' W 075°13'0 0.0
2017-Aug-09 07:00N 39°55' W 075°13'0 0.0
2017-Aug-09 06:30N 39°55' W 075°13'0 0.0
2017-Aug-09 06:00N 39°55' W 075°13'0 0.0
2017-Aug-09 05:30N 39°55' W 075°13'0 0.0
2017-Aug-09 05:00N 39°55' W 075°13'0 0.0
2017-Aug-09 04:30N 39°55' W 075°13'0 0.0
2017-Aug-09 04:01N 39°55' W 075°13'0 0.0
2017-Aug-09 03:30N 39°55' W 075°13'1 1.8
2017-Aug-09 03:00N 39°54' W 075°13'2 3.1
2017-Aug-09 02:31N 39°52' W 075°12'0 0.1
2017-Aug-09 01:58N 39°52' W 075°12'0 0.1
2017-Aug-09 01:28N 39°52' W 075°13'0 0.1
2017-Aug-09 00:58N 39°52' W 075°13'0 0.1
2017-Aug-09 00:28N 39°52' W 075°13'0 0.0
2017-Aug-08 23:58N 39°52' W 075°13'0 0.0
2017-Aug-08 23:28N 39°52' W 075°13'0 0.0
2017-Aug-08 22:58N 39°52' W 075°13'0 0.0
2017-Aug-08 22:28N 39°52' W 075°13'0 0.0
2017-Aug-08 21:58N 39°52' W 075°13'0 0.0
2017-Aug-08 21:28N 39°52' W 075°13'0 0.1
2017-Aug-08 20:58N 39°52' W 075°12'0 0.0
2017-Aug-08 20:28N 39°52' W 075°12'0 0.1
2017-Aug-08 19:58N 39°52' W 075°12'0 0.3
2017-Aug-08 19:28N 39°52' W 075°12'0 0.1
2017-Aug-08 18:58N 39°52' W 075°12'0 0.0
2017-Aug-08 18:28N 39°52' W 075°12'0 0.0
2017-Aug-08 17:58N 39°52' W 075°12'0 0.0
2017-Aug-08 17:28N 39°52' W 075°12'1 3.0
2017-Aug-08 17:01N 39°52' W 075°14'510.3
2017-Aug-08 16:30N 39°51' W 075°20'510.9
2017-Aug-08 16:01N 39°48' W 075°26'510.2
2017-Aug-08 15:30N 39°44' W 075°30'510.8
2017-Aug-08 15:01N 39°39' W 075°33'5 9.6
2017-Aug-08 14:31N 39°34' W 075°33'3 5.1
2017-Aug-08 14:01N 39°35' W 075°36'0 0.0
2017-Aug-08 13:30N 39°35' W 075°36'0 0.0
2017-Aug-08 12:58N 39°35' W 075°36'0 0.0
2017-Aug-08 12:28N 39°35' W 075°36'0 0.0
2017-Aug-08 11:58N 39°35' W 075°36'0 0.0
2017-Aug-08 11:28N 39°35' W 075°36'0 0.0
2017-Aug-08 10:58N 39°35' W 075°36'0 0.0
2017-Aug-08 10:28N 39°35' W 075°36'0 0.0
2017-Aug-08 09:58N 39°35' W 075°36'0 0.0
2017-Aug-08 09:28N 39°35' W 075°36'0 0.0
2017-Aug-08 08:58N 39°35' W 075°36'0 0.0
2017-Aug-08 08:28N 39°35' W 075°36'0 0.0
2017-Aug-08 07:55N 39°35' W 075°36'0 0.0
2017-Aug-08 07:28N 39°35' W 075°36'0 0.0
2017-Aug-08 06:58N 39°35' W 075°36'0 0.0
2017-Aug-08 06:28N 39°35' W 075°36'0 0.0
2017-Aug-08 05:58N 39°35' W 075°36'0 0.0
2017-Aug-08 05:28N 39°35' W 075°36'0 0.0
2017-Aug-08 04:58N 39°35' W 075°36'0 0.0
2017-Aug-08 04:28N 39°35' W 075°36'0 0.0
2017-Aug-08 03:58N 39°35' W 075°36'0 0.0
2017-Aug-08 03:28N 39°35' W 075°36'0 0.0
2017-Aug-08 02:58N 39°35' W 075°36'0 0.0
2017-Aug-08 02:28N 39°35' W 075°36'0 0.0
2017-Aug-08 01:58N 39°35' W 075°36'0 0.0
2017-Aug-08 01:28N 39°35' W 075°36'0 0.0
2017-Aug-08 00:58N 39°35' W 075°36'0 0.0
2017-Aug-08 00:28N 39°35' W 075°36'0 0.0
2017-Aug-07 23:58N 39°35' W 075°36'0 0.0
2017-Aug-07 23:28N 39°35' W 075°36'0 0.0
2017-Aug-07 22:58N 39°35' W 075°36'0 0.0
2017-Aug-07 22:28N 39°35' W 075°36'0 0.0
2017-Aug-07 21:58N 39°35' W 075°36'0 0.0
2017-Aug-07 21:28N 39°35' W 075°36'0 0.0
2017-Aug-07 20:58N 39°35' W 075°36'0 0.0
2017-Aug-07 20:28N 39°35' W 075°36'0 0.0
2017-Aug-07 19:58N 39°35' W 075°36'0 0.0
2017-Aug-07 19:28N 39°35' W 075°36'0 0.0
2017-Aug-07 18:58N 39°35' W 075°36'0 0.0
2017-Aug-07 18:25N 39°35' W 075°36'0 0.0
2017-Aug-07 17:58N 39°35' W 075°36'0 0.0
2017-Aug-07 17:28N 39°35' W 075°36'0 0.0
2017-Aug-07 16:58N 39°35' W 075°36'0 0.0
2017-Aug-07 16:28N 39°35' W 075°36'0 0.0
2017-Aug-07 15:58N 39°35' W 075°36'0 0.0
2017-Aug-07 15:28N 39°35' W 075°36'0 0.0
2017-Aug-07 14:58N 39°35' W 075°36'0 0.0
2017-Aug-07 14:28N 39°35' W 075°36'0 0.0
2017-Aug-07 13:58N 39°35' W 075°36'0 0.0
2017-Aug-07 13:28N 39°35' W 075°36'0 0.0
2017-Aug-07 12:58N 39°35' W 075°36'0 0.0
2017-Aug-07 12:28N 39°35' W 075°36'0 0.0
2017-Aug-07 11:58N 39°35' W 075°36'0 0.0
2017-Aug-07 11:28N 39°35' W 075°36'0 0.0
2017-Aug-07 10:58N 39°35' W 075°36'0 0.0
2017-Aug-07 10:28N 39°35' W 075°36'0 0.0
2017-Aug-07 09:58N 39°35' W 075°36'0 0.0
2017-Aug-07 09:28N 39°35' W 075°36'0 0.0
2017-Aug-07 08:58N 39°35' W 075°36'0 0.0
2017-Aug-07 08:28N 39°35' W 075°36'0 0.0
2017-Aug-07 07:58N 39°35' W 075°36'0 0.0
2017-Aug-07 07:28N 39°35' W 075°36'0 0.0
2017-Aug-07 06:58N 39°35' W 075°36'0 0.0
2017-Aug-07 06:28N 39°35' W 075°36'0 0.0
2017-Aug-07 05:58N 39°35' W 075°36'0 0.0
2017-Aug-07 05:28N 39°35' W 075°36'0 0.0
2017-Aug-07 04:58N 39°35' W 075°36'0 0.0
2017-Aug-07 04:28N 39°35' W 075°36'0 0.0
2017-Aug-07 03:58N 39°35' W 075°36'0 0.0
2017-Aug-07 03:28N 39°35' W 075°36'0 0.0
2017-Aug-07 02:58N 39°35' W 075°36'0 0.0
2017-Aug-07 02:28N 39°35' W 075°36'0 0.0
2017-Aug-07 01:58N 39°35' W 075°36'0 0.0
2017-Aug-07 01:28N 39°35' W 075°36'0 0.0
2017-Aug-07 00:58N 39°35' W 075°36'0 0.0
2017-Aug-07 00:28N 39°35' W 075°36'0 0.0
2017-Aug-06 23:58N 39°35' W 075°36'0 0.0
2017-Aug-06 23:28N 39°35' W 075°36'0 0.0
2017-Aug-06 22:58N 39°35' W 075°36'0 0.0
2017-Aug-06 22:28N 39°35' W 075°36'0 0.0
2017-Aug-06 21:58N 39°35' W 075°36'  

Dump ship's entire track history